Time;durP1;ratioP1;P1;durP2;ratioP2;P2;SDS_P1;SDS_P2;PMS_P1;PMS_P2;Temp;Humidity;BMP_temperature;BMP_pressure;BME280_temperature;BME280_humidity;BME280_pressure;Samples;Min_cycle;Max_cycle;Signal;HPM_P1;HPM_P2
2022/05/07 00:01:03;;;;;;;;;;;15.50;1.00;;;;;;10190442;28;84540;-58
2022/05/07 00:06:03;;;;;;;;;;;15.40;1.00;;;;;;10220150;28;84196;-58
2022/05/07 00:11:04;;;;;;;;;;;15.40;1.00;;;;;;10229644;28;87075;-57
2022/05/07 00:21:24;;;;;;;;;;;15.20;1.00;;;;;;10245508;28;84694;-59
2022/05/07 00:26:25;;;;;;;;;;;15.10;1.00;;;;;;10229443;28;84246;-57
2022/05/07 00:31:26;;;;;;;;;;;15.10;1.00;;;;;;10246279;28;86602;-59
2022/05/07 00:36:26;;;;;;;;;;;15.00;1.00;;;;;;10244490;28;84145;-58
2022/05/07 00:41:27;;;;;;;;;;;15.10;1.00;;;;;;10188637;28;85039;-58
2022/05/07 00:46:28;;;;;;;;;;;15.10;1.00;;;;;;10205970;28;84221;-56
2022/05/07 00:51:34;;;;;;;;;;;15.00;1.00;;;;;;10205994;28;84016;-57
2022/05/07 00:56:36;;;;;;;;;;;14.90;1.00;;;;;;10205456;28;84184;-57
2022/05/07 01:01:37;;;;;;;;;;;14.90;1.00;;;;;;10187963;28;86926;-58
2022/05/07 01:06:38;;;;;;;;;;;14.90;1.00;;;;;;10206546;28;84249;-55
2022/05/07 01:11:42;;;;;;;;;;;14.80;1.00;;;;;;10187661;28;86985;-58
2022/05/07 01:16:44;;;;;;;;;;;14.70;1.00;;;;;;10191842;28;85287;-57
2022/05/07 01:21:44;;;;;;;;;;;14.70;1.00;;;;;;10245908;28;84518;-55
2022/05/07 01:26:45;;;;;;;;;;;14.50;1.00;;;;;;10227561;28;86186;-57
2022/05/07 01:31:46;;;;;;;;;;;14.60;1.00;;;;;;10229355;28;84271;-58
2022/05/07 01:36:47;;;;;;;;;;;14.50;1.00;;;;;;10203935;28;86723;-55
2022/05/07 01:41:50;;;;;;;;;;;14.40;1.00;;;;;;10188523;28;85847;-58
2022/05/07 01:52:11;;;;;;;;;;;14.30;1.00;;;;;;10187387;28;86809;-59
2022/05/07 01:57:18;;;;;;;;;;;14.30;1.00;;;;;;10187201;28;86883;-59
2022/05/07 02:02:18;;;;;;;;;;;14.20;1.00;;;;;;10187499;28;86171;-59
2022/05/07 02:07:19;;;;;;;;;;;14.30;1.00;;;;;;10187293;28;86163;-59
2022/05/07 02:12:21;;;;;;;;;;;14.20;1.00;;;;;;10189017;28;87227;-59
2022/05/07 02:17:22;;;;;;;;;;;14.10;1.00;;;;;;10192432;28;86706;-59
2022/05/07 02:22:23;;;;;;;;;;;14.00;1.00;;;;;;10193755;28;84949;-58
2022/05/07 02:27:24;;;;;;;;;;;14.00;1.00;;;;;;10221358;28;85015;-58
2022/05/07 02:32:28;;;;;;;;;;;13.90;1.00;;;;;;10233837;28;87222;-59
2022/05/07 02:37:28;;;;;;;;;;;13.80;1.00;;;;;;10199319;28;86959;-59
2022/05/07 02:42:33;;;;;;;;;;;13.60;1.00;;;;;;10196099;28;85928;-57
2022/05/07 02:47:38;;;;;;;;;;;13.50;1.00;;;;;;10218522;23;87065;-53
2022/05/07 02:52:39;;;;;;;;;;;13.40;1.00;;;;;;10209477;28;84933;-53
2022/05/07 02:57:42;;;;;;;;;;;13.30;1.00;;;;;;10199068;28;84097;-55
2022/05/07 03:02:43;;;;;;;;;;;13.30;1.00;;;;;;10192584;28;85941;-52
2022/05/07 03:07:44;;;;;;;;;;;13.20;1.00;;;;;;10191692;28;85033;-52
2022/05/07 03:12:54;;;;;;;;;;;13.10;1.00;;;;;;10192082;28;87100;-55
2022/05/07 03:17:55;;;;;;;;;;;13.00;30.00;;;;;;10190858;28;86831;-56
2022/05/07 03:22:56;;;;;;;;;;;12.90;59.90;;;;;;10187379;28;85129;-51
2022/05/07 03:27:56;;;;;;;;;;;12.80;69.70;;;;;;10206925;28;84138;-55
2022/05/07 03:32:57;;;;;;;;;;;12.60;94.20;;;;;;10209712;28;85181;-52
2022/05/07 03:37:59;;;;;;;;;;;12.60;92.00;;;;;;10190572;28;85771;-53
2022/05/07 03:43:05;;;;;;;;;;;12.60;93.60;;;;;;10190203;28;84619;-53
2022/05/07 03:48:06;;;;;;;;;;;12.60;90.00;;;;;;10207038;28;85070;-52
2022/05/07 03:58:28;;;;;;;;;;;12.60;91.40;;;;;;10189812;28;85969;-51
2022/05/07 04:03:29;;;;;;;;;;;12.70;87.40;;;;;;10189359;28;87113;-51
2022/05/07 04:08:31;;;;;;;;;;;12.70;53.40;;;;;;10213154;28;86063;-52
2022/05/07 04:13:34;;;;;;;;;;;12.70;52.80;;;;;;10189629;28;86753;-56
2022/05/07 04:18:37;;;;;;;;;;;12.70;63.30;;;;;;10189712;28;86610;-50
2022/05/07 04:23:44;;;;;;;;;;;12.70;58.30;;;;;;10187218;28;86922;-50
2022/05/07 04:28:45;;;;;;;;;;;12.90;1.00;;;;;;10185973;28;85827;-56
2022/05/07 04:33:47;;;;;;;;;;;13.00;1.00;;;;;;10200000;28;85903;-55
2022/05/07 04:38:49;;;;;;;;;;;13.10;1.00;;;;;;10198952;28;86785;-52
2022/05/07 04:44:03;;;;;;;;;;;13.10;1.00;;;;;;10187432;28;86746;-55
2022/05/07 04:49:05;;;;;;;;;;;13.20;1.00;;;;;;10184935;28;85843;-54
2022/05/07 04:54:07;;;;;;;;;;;13.40;1.00;;;;;;10204225;28;84934;-50
2022/05/07 04:59:08;;;;;;;;;;;13.60;1.00;;;;;;10187362;28;85612;-54
2022/05/07 05:04:16;;;;;;;;;;;13.80;1.00;;;;;;10194820;28;85811;-55
2022/05/07 05:09:17;;;;;;;;;;;13.80;1.00;;;;;;10187235;28;85991;-55
2022/05/07 05:19:45;;;;;;;;;;;14.00;1.00;;;;;;10187543;28;86689;-52
2022/05/07 05:24:50;;;;;;;;;;;14.00;1.00;;;;;;10185736;28;84221;-52
2022/05/07 05:29:51;;;;;;;;;;;14.00;1.00;;;;;;10238931;28;84911;-56
2022/05/07 05:34:53;;;;;;;;;;;14.00;1.00;;;;;;10243754;28;84078;-53
2022/05/07 05:39:58;;;;;;;;;;;14.00;1.00;;;;;;10207864;28;86782;-53
2022/05/07 05:45:02;;;;;;;;;;;14.10;1.00;;;;;;10226803;28;86751;-54
2022/05/07 05:50:03;;;;;;;;;;;14.30;1.00;;;;;;10227087;28;85965;-54
2022/05/07 05:55:10;;;;;;;;;;;14.40;1.00;;;;;;10208822;28;86761;-60
2022/05/07 06:00:12;;;;;;;;;;;14.60;1.00;;;;;;10187682;28;86821;-63
2022/05/07 06:05:17;;;;;;;;;;;14.90;1.00;;;;;;10206251;28;84035;-64
2022/05/07 06:10:23;;;;;;;;;;;15.00;1.00;;;;;;10160867;28;85693;-57
2022/05/07 06:15:24;;;;;;;;;;;15.40;1.00;;;;;;10211221;28;84592;-58
2022/05/07 06:20:24;;;;;;;;;;;15.60;1.00;;;;;;10188399;28;86769;-59
2022/05/07 06:30:49;;;;;;;;;;;15.90;1.00;;;;;;10196051;28;85937;-60
2022/05/07 06:35:51;;;;;;;;;;;16.10;1.00;;;;;;10187754;28;86505;-61
2022/05/07 06:41:02;;;;;;;;;;;16.10;1.00;;;;;;10192164;28;86025;-59
2022/05/07 06:46:03;;;;;;;;;;;16.10;1.00;;;;;;10207834;28;86651;-56
2022/05/07 06:51:06;;;;;;;;;;;16.10;1.00;;;;;;10208759;28;85751;-60
2022/05/07 06:56:08;;;;;;;;;;;16.30;1.00;;;;;;10204968;28;85934;-61
2022/05/07 07:01:08;;;;;;;;;;;16.60;1.00;;;;;;10223183;28;84279;-61
2022/05/07 07:06:09;;;;;;;;;;;16.70;1.00;;;;;;10227445;28;84924;-62
2022/05/07 07:11:09;;;;;;;;;;;16.70;1.00;;;;;;10224648;28;84810;-58
2022/05/07 07:16:10;;;;;;;;;;;17.20;1.00;;;;;;10180611;28;85718;-53
2022/05/07 07:21:12;;;;;;;;;;;17.50;1.00;;;;;;10201202;28;84341;-55
2022/05/07 07:26:13;;;;;;;;;;;17.70;1.00;;;;;;10184937;28;85171;-53
2022/05/07 07:31:13;;;;;;;;;;;18.00;1.00;;;;;;10185363;28;85460;-58
2022/05/07 07:36:14;;;;;;;;;;;18.40;1.00;;;;;;10199411;28;85055;-54
2022/05/07 07:41:15;;;;;;;;;;;18.80;1.00;;;;;;10186958;28;85279;-52
2022/05/07 07:51:35;;;;;;;;;;;19.70;99.90;;;;;;10198034;28;86656;-56
2022/05/07 07:56:35;;;;;;;;;;;20.10;1.00;;;;;;10198726;28;85060;-56
2022/05/07 08:01:36;;;;;;;;;;;20.50;1.00;;;;;;10195997;28;85601;-53
2022/05/07 08:06:37;;;;;;;;;;;21.10;1.00;;;;;;10196651;28;84977;-54
2022/05/07 08:11:40;;;;;;;;;;;21.60;99.90;;;;;;10176005;28;86218;-52
2022/05/07 08:16:41;;;;;;;;;;;22.20;1.00;;;;;;10199305;28;84548;-50
2022/05/07 08:21:44;;;;;;;;;;;22.70;1.00;;;;;;10190993;28;85792;-55
2022/05/07 08:26:45;;;;;;;;;;;23.40;12.50;;;;;;10182105;28;84609;-45
2022/05/07 08:31:45;;;;;;;;;;;23.90;1.00;;;;;;10202249;28;84946;-56
2022/05/07 08:36:46;;;;;;;;;;;23.50;1.00;;;;;;10184191;28;84790;-53
2022/05/07 08:41:46;;;;;;;;;;;24.20;99.90;;;;;;10206432;28;85409;-53
2022/05/07 08:46:47;;;;;;;;;;;24.80;1.00;;;;;;10202267;28;84635;-54
2022/05/07 08:51:48;;;;;;;;;;;25.40;99.90;;;;;;10185496;28;86277;-58
2022/05/07 08:56:49;;;;;;;;;;;26.20;1.00;;;;;;10231968;28;84861;-56
2022/05/07 09:01:50;;;;;;;;;;;26.90;27.50;;;;;;10243053;28;84928;-57
2022/05/07 09:06:54;;;;;;;;;;;26.70;1.00;;;;;;10215960;28;85052;-56
2022/05/07 09:11:54;;;;;;;;;;;26.90;99.90;;;;;;10184265;28;84227;-57
2022/05/07 09:16:58;;;;;;;;;;;27.60;1.00;;;;;;10201947;28;85360;-56
2022/05/07 09:22:05;;;;;;;;;;;27.70;1.00;;;;;;10220902;28;84911;-56
2022/05/07 09:27:06;;;;;;;;;;;27.80;1.00;;;;;;10202293;28;84890;-57
2022/05/07 09:32:08;;;;;;;;;;;27.20;1.00;;;;;;10209533;28;85280;-56
2022/05/07 09:37:16;;;;;;;;;;;27.40;1.00;;;;;;10210104;28;85152;-53
2022/05/07 09:42:18;;;;;;;;;;;27.40;1.00;;;;;;10191690;28;85279;-54
2022/05/07 09:47:18;;;;;;;;;;;28.50;1.00;;;;;;10210411;28;84865;-55
2022/05/07 09:52:19;;;;;;;;;;;27.80;99.90;;;;;;10208934;28;84937;-55
2022/05/07 09:57:33;;;;;;;;;;;26.80;1.00;;;;;;10200541;28;85160;-55
2022/05/07 10:02:56;;;;;;;;;;;27.30;1.00;;;;;;10204179;28;84786;-57
2022/05/07 10:08:07;;;;;;;;;;;28.50;99.90;;;;;;10207366;28;84992;-50
2022/05/07 10:13:08;;;;;;;;;;;27.50;99.90;;;;;;10206916;28;84597;-56
2022/05/07 10:18:14;;;;;;;;;;;27.60;99.90;;;;;;10206906;28;84754;-54
2022/05/07 10:23:25;;;;;;;;;;;28.00;99.90;;;;;;10201111;28;85254;-58
2022/05/07 10:28:40;;;;;;;;;;;28.60;99.90;;;;;;10196936;28;84185;-45
2022/05/07 10:33:40;;;;;;;;;;;28.80;99.90;;;;;;10219843;28;85355;-65
2022/05/07 10:38:42;;;;;;;;;;;27.60;99.90;;;;;;10224899;28;85086;-63
2022/05/07 10:43:47;;;;;;;;;;;26.40;99.90;;;;;;10205910;28;84882;-62
2022/05/07 10:48:56;;;;;;;;;;;25.50;99.90;;;;;;10209025;28;84936;-64
2022/05/07 10:54:00;;;;;;;;;;;24.60;99.90;;;;;;10222968;28;84784;-64
2022/05/07 10:59:02;;;;;;;;;;;24.50;1.00;;;;;;10218490;28;84061;-63
2022/05/07 11:04:07;;;;;;;;;;;24.50;1.00;;;;;;10208416;28;85379;-63
2022/05/07 11:09:13;;;;;;;;;;;24.40;1.00;;;;;;10205007;28;84312;-59
2022/05/07 11:14:21;;;;;;;;;;;24.10;1.00;;;;;;10183633;28;86046;-61
2022/05/07 11:19:35;;;;;;;;;;;23.90;1.00;;;;;;10186689;28;84186;-59
2022/05/07 11:24:35;;;;;;;;;;;24.40;1.00;;;;;;10201991;28;84878;-62
2022/05/07 11:29:36;;;;;;;;;;;24.60;1.00;;;;;;10203197;28;84552;-61
2022/05/07 11:34:38;;;;;;;;;;;24.20;1.00;;;;;;10202983;28;84848;-56
2022/05/07 11:39:48;;;;;;;;;;;24.90;1.00;;;;;;10169643;28;86794;-63
2022/05/07 11:50:18;;;;;;;;;;;25.90;1.00;;;;;;10199485;28;84984;-56
2022/05/07 11:55:29;;;;;;;;;;;26.20;1.00;;;;;;10204824;28;84095;-57
2022/05/07 12:00:30;;;;;;;;;;;25.70;99.90;;;;;;10184420;28;84966;-55
2022/05/07 12:05:39;;;;;;;;;;;25.00;1.00;;;;;;10189093;28;85258;-58
2022/05/07 12:10:40;;;;;;;;;;;24.50;1.00;;;;;;10200937;28;84333;-55
2022/05/07 12:21:00;;;;;;;;;;;25.70;1.00;;;;;;10180102;28;84580;-45
2022/05/07 12:31:19;;;;;;;;;;;25.20;1.00;;;;;;10203390;28;84471;-52
2022/05/07 12:36:20;;;;;;;;;;;24.90;99.90;;;;;;10202908;28;84900;-55
2022/05/07 12:41:20;;;;;;;;;;;24.70;99.90;;;;;;10185169;28;86905;-57
2022/05/07 12:46:23;;;;;;;;;;;25.20;99.90;;;;;;10185307;28;84256;-61
2022/05/07 12:51:25;;;;;;;;;;;24.90;99.90;;;;;;10166398;28;84901;-59
2022/05/07 12:56:27;;;;;;;;;;;24.50;99.90;;;;;;10174758;28;84374;-59
2022/05/07 13:01:28;;;;;;;;;;;24.40;99.90;;;;;;10178899;28;84297;-57
2022/05/07 13:06:28;;;;;;;;;;;23.80;99.90;;;;;;10225700;28;84499;-58
2022/05/07 13:11:29;;;;;;;;;;;23.60;99.90;;;;;;10231387;28;84813;-60
2022/05/07 13:16:30;;;;;;;;;;;23.40;1.00;;;;;;10184977;28;84197;-55
2022/05/07 13:21:31;;;;;;;;;;;23.30;1.00;;;;;;10198783;28;84941;-56
2022/05/07 13:26:31;;;;;;;;;;;23.70;1.00;;;;;;10174802;28;85138;-60
2022/05/07 13:31:33;;;;;;;;;;;25.40;1.00;;;;;;10197858;28;85287;-60
2022/05/07 13:36:34;;;;;;;;;;;26.80;99.90;;;;;;10201267;28;85040;-59
2022/05/07 13:41:34;;;;;;;;;;;27.10;78.20;;;;;;10199981;28;84815;-61
2022/05/07 13:46:35;;;;;;;;;;;27.70;1.00;;;;;;10182548;28;84020;-59
2022/05/07 13:51:36;;;;;;;;;;;27.00;1.00;;;;;;10199884;28;84355;-57
2022/05/07 13:56:37;;;;;;;;;;;25.80;1.00;;;;;;10199012;28;85994;-61
2022/05/07 14:01:37;;;;;;;;;;;24.80;1.00;;;;;;10179118;28;84114;-60
2022/05/07 14:06:38;;;;;;;;;;;24.10;1.00;;;;;;10174616;28;87205;-55
2022/05/07 14:11:39;;;;;;;;;;;24.00;1.00;;;;;;10199843;28;85344;-60
2022/05/07 14:16:39;;;;;;;;;;;24.80;1.00;;;;;;10203084;28;84762;-55
2022/05/07 14:21:42;;;;;;;;;;;25.20;1.00;;;;;;10188672;28;85805;-60
2022/05/07 14:26:42;;;;;;;;;;;25.20;1.00;;;;;;10181572;28;85441;-60
2022/05/07 14:31:43;;;;;;;;;;;24.60;1.00;;;;;;10190946;28;84990;-61
2022/05/07 14:36:44;;;;;;;;;;;23.90;90.50;;;;;;10195730;28;84805;-57
2022/05/07 14:41:45;;;;;;;;;;;23.20;99.90;;;;;;10197780;28;84949;-60
2022/05/07 14:46:46;;;;;;;;;;;23.00;1.00;;;;;;10193196;28;84910;-60
2022/05/07 14:51:46;;;;;;;;;;;22.60;1.00;;;;;;10200460;28;84979;-57
2022/05/07 14:56:47;;;;;;;;;;;21.70;99.90;;;;;;10195903;28;85100;-54
2022/05/07 15:01:47;;;;;;;;;;;21.20;1.00;;;;;;10194005;28;85994;-61
2022/05/07 15:06:48;;;;;;;;;;;21.20;1.00;;;;;;10205089;28;84906;-60
2022/05/07 15:11:48;;;;;;;;;;;21.60;1.00;;;;;;10177315;28;86113;-59
2022/05/07 15:16:49;;;;;;;;;;;22.10;99.90;;;;;;10195080;28;84210;-59
2022/05/07 15:21:50;;;;;;;;;;;22.60;24.20;;;;;;10199114;28;84098;-60
2022/05/07 15:26:50;;;;;;;;;;;22.80;1.00;;;;;;10202397;28;84976;-61
2022/05/07 15:37:10;;;;;;;;;;;23.10;1.00;;;;;;10187815;28;87164;-56
2022/05/07 15:42:10;;;;;;;;;;;23.10;99.90;;;;;;10201275;28;85249;-58
2022/05/07 15:47:11;;;;;;;;;;;22.80;99.20;;;;;;10222172;22;84121;-47
2022/05/07 15:52:14;;;;;;;;;;;22.60;1.00;;;;;;10207578;28;84945;-48
2022/05/07 15:57:15;;;;;;;;;;;22.30;1.00;;;;;;10198196;28;86457;-48
2022/05/07 16:02:15;;;;;;;;;;;21.90;1.00;;;;;;10212287;28;90841;-44
2022/05/07 16:07:16;;;;;;;;;;;21.60;1.00;;;;;;10190508;28;84855;-45
2022/05/07 16:12:18;;;;;;;;;;;21.10;1.00;;;;;;10224281;28;84718;-44
2022/05/07 16:17:19;;;;;;;;;;;20.80;1.00;;;;;;10219210;28;84995;-47
2022/05/07 16:27:39;;;;;;;;;;;20.50;1.00;;;;;;10228205;28;84253;-46
2022/05/07 16:32:40;;;;;;;;;;;20.40;1.00;;;;;;10205443;28;100137;-47
2022/05/07 16:37:40;;;;;;;;;;;20.30;99.90;;;;;;10204143;28;84930;-46
2022/05/07 16:42:41;;;;;;;;;;;20.20;99.90;;;;;;10202290;28;84214;-49
2022/05/07 16:47:42;;;;;;;;;;;20.10;1.00;;;;;;10200261;28;84236;-50
2022/05/07 16:52:42;;;;;;;;;;;20.00;99.90;;;;;;10207460;28;84730;-47
2022/05/07 16:57:43;;;;;;;;;;;19.80;99.90;;;;;;10200981;28;90833;-46
2022/05/07 17:02:44;;;;;;;;;;;19.60;99.90;;;;;;10212336;28;84269;-49
2022/05/07 17:07:46;;;;;;;;;;;19.70;1.00;;;;;;10206143;28;85706;-49
2022/05/07 17:12:46;;;;;;;;;;;19.60;1.00;;;;;;10236777;28;84874;-47
2022/05/07 17:17:47;;;;;;;;;;;19.70;1.00;;;;;;10227125;28;84992;-45
2022/05/07 17:22:48;;;;;;;;;;;19.70;1.00;;;;;;10243679;28;85019;-47
2022/05/07 17:27:48;;;;;;;;;;;19.60;1.00;;;;;;10219013;28;84849;-51
2022/05/07 17:32:49;;;;;;;;;;;19.30;99.90;;;;;;10211640;28;84165;-46
2022/05/07 17:37:50;;;;;;;;;;;18.90;1.00;;;;;;10207023;28;90586;-48
2022/05/07 17:42:55;;;;;;;;;;;18.70;1.00;;;;;;10235661;28;84863;-48
2022/05/07 17:53:15;;;;;;;;;;;18.30;1.00;;;;;;10219334;28;84456;-45
2022/05/07 17:58:16;;;;;;;;;;;18.10;1.00;;;;;;10224134;28;85974;-47
2022/05/07 18:03:21;;;;;;;;;;;18.10;1.00;;;;;;10245072;28;84800;-48
2022/05/07 18:08:21;;;;;;;;;;;18.00;1.00;;;;;;10228667;28;84872;-47
2022/05/07 18:13:22;;;;;;;;;;;17.90;1.00;;;;;;10211141;28;84706;-46
2022/05/07 18:18:23;;;;;;;;;;;17.70;1.00;;;;;;10210338;28;84173;-49
2022/05/07 18:23:27;;;;;;;;;;;17.50;1.00;;;;;;10210134;28;84024;-47
2022/05/07 18:28:28;;;;;;;;;;;17.40;1.00;;;;;;10193301;28;85050;-45
2022/05/07 18:33:28;;;;;;;;;;;17.30;1.00;;;;;;10209096;28;84933;-48
2022/05/07 18:43:48;;;;;;;;;;;16.90;7.00;;;;;;10208844;28;84877;-46
2022/05/07 18:48:49;;;;;;;;;;;16.90;13.10;;;;;;10191640;28;85727;-47
2022/05/07 18:53:49;;;;;;;;;;;16.80;17.20;;;;;;10209116;28;86931;-47
2022/05/07 18:58:50;;;;;;;;;;;16.70;12.10;;;;;;10208080;28;91563;-46
2022/05/07 19:03:50;;;;;;;;;;;16.60;9.00;;;;;;10208393;28;84031;-47
2022/05/07 19:08:51;;;;;;;;;;;16.60;25.90;;;;;;10208306;28;84044;-46
2022/05/07 19:13:56;;;;;;;;;;;16.50;50.20;;;;;;10207752;28;84940;-45
2022/05/07 19:18:56;;;;;;;;;;;16.40;99.70;;;;;;10207968;28;84568;-45
2022/05/07 19:23:57;;;;;;;;;;;16.30;99.90;;;;;;10208014;28;84097;-47
2022/05/07 19:28:57;;;;;;;;;;;16.30;99.90;;;;;;10207882;28;83997;-46
2022/05/07 19:33:59;;;;;;;;;;;16.20;99.90;;;;;;10207716;28;84263;-46
2022/05/07 19:38:59;;;;;;;;;;;16.10;99.90;;;;;;10191104;28;85963;-49
2022/05/07 19:44:01;;;;;;;;;;;16.10;99.90;;;;;;10207155;28;84193;-47
2022/05/07 19:49:03;;;;;;;;;;;16.00;99.90;;;;;;10208186;28;84936;-46
2022/05/07 19:54:03;;;;;;;;;;;15.90;99.90;;;;;;10207155;28;84225;-47
2022/05/07 19:59:04;;;;;;;;;;;15.90;99.90;;;;;;10208058;28;85506;-46
2022/05/07 20:04:05;;;;;;;;;;;15.90;99.90;;;;;;10207331;28;84284;-52
2022/05/07 20:09:05;;;;;;;;;;;15.80;99.90;;;;;;10206080;28;84909;-51
2022/05/07 20:14:06;;;;;;;;;;;15.80;99.90;;;;;;10190858;28;84168;-46
2022/05/07 20:19:08;;;;;;;;;;;15.70;99.90;;;;;;10207226;28;85513;-47
2022/05/07 20:24:09;;;;;;;;;;;15.70;99.90;;;;;;10206052;28;84887;-46
2022/05/07 20:29:10;;;;;;;;;;;15.70;99.90;;;;;;10206524;28;84807;-49
2022/05/07 20:34:13;;;;;;;;;;;15.70;99.90;;;;;;10188672;28;84729;-45
2022/05/07 20:39:13;;;;;;;;;;;15.70;99.90;;;;;;10206751;28;84891;-45
2022/05/07 20:49:34;;;;;;;;;;;15.70;99.90;;;;;;10205989;28;84307;-46
2022/05/07 20:54:34;;;;;;;;;;;15.60;99.90;;;;;;10205719;28;84762;-49
2022/05/07 20:59:35;;;;;;;;;;;15.50;99.90;;;;;;10204963;28;84220;-47
2022/05/07 21:04:37;;;;;;;;;;;15.50;99.90;;;;;;10205428;28;84220;-46
2022/05/07 21:09:39;;;;;;;;;;;15.30;99.90;;;;;;10204493;28;84768;-50
2022/05/07 21:14:40;;;;;;;;;;;15.20;99.90;;;;;;10205950;28;84787;-49
2022/05/07 21:19:41;;;;;;;;;;;15.00;99.90;;;;;;10204011;28;84928;-47
2022/05/07 21:30:01;;;;;;;;;;;14.70;99.90;;;;;;10186597;28;86023;-47
2022/05/07 21:35:04;;;;;;;;;;;14.60;99.90;;;;;;10204399;28;84977;-50
2022/05/07 21:40:04;;;;;;;;;;;14.50;99.90;;;;;;10204106;28;84963;-45
2022/05/07 21:45:05;;;;;;;;;;;14.40;99.90;;;;;;10255094;22;84806;-54
2022/05/07 21:55:22;;;;;;;;;;;14.40;53.80;;;;;;10342302;28;84163;-50
2022/05/07 22:00:43;;;;;;;;;;;14.30;9.70;;;;;;10367133;28;84459;-56
2022/05/07 22:05:43;;;;;;;;;;;14.30;6.10;;;;;;10367365;28;84207;-56
2022/05/07 22:10:45;;;;;;;;;;;14.30;8.40;;;;;;10333858;28;84837;-56
2022/05/07 22:15:45;;;;;;;;;;;14.20;1.00;;;;;;10325696;28;84239;-54
2022/05/07 22:20:47;;;;;;;;;;;14.10;1.00;;;;;;10325020;28;84098;-54
2022/05/07 22:25:53;;;;;;;;;;;14.00;1.00;;;;;;10334597;28;85602;-55
2022/05/07 22:30:54;;;;;;;;;;;13.90;1.00;;;;;;10349177;28;85168;-54
2022/05/07 22:35:55;;;;;;;;;;;13.80;1.00;;;;;;10372980;28;84843;-52
2022/05/07 22:40:55;;;;;;;;;;;13.70;1.00;;;;;;10371377;28;84332;-52
2022/05/07 22:45:56;;;;;;;;;;;13.60;1.00;;;;;;10372530;28;84158;-53
2022/05/07 22:50:58;;;;;;;;;;;13.50;1.00;;;;;;10372052;28;99593;-55
2022/05/07 22:55:59;;;;;;;;;;;13.30;1.00;;;;;;10362811;28;85205;-54
2022/05/07 23:01:00;;;;;;;;;;;13.20;1.00;;;;;;10330573;28;84437;-56
2022/05/07 23:06:00;;;;;;;;;;;13.10;1.00;;;;;;10298976;28;86944;-55
2022/05/07 23:11:00;;;;;;;;;;;12.90;40.50;;;;;;10331014;28;89461;-50
2022/05/07 23:16:02;;;;;;;;;;;12.80;56.80;;;;;;10330773;28;84042;-50
2022/05/07 23:21:02;;;;;;;;;;;12.70;58.70;;;;;;10355300;28;85268;-54
2022/05/07 23:26:03;;;;;;;;;;;12.60;99.50;;;;;;10371567;28;84958;-55
2022/05/07 23:31:04;;;;;;;;;;;12.60;99.90;;;;;;10354395;28;85324;-54
2022/05/07 23:36:05;;;;;;;;;;;12.50;99.90;;;;;;10350760;28;87183;-51
2022/05/07 23:41:06;;;;;;;;;;;12.40;99.90;;;;;;10352920;28;85155;-51
2022/05/07 23:46:06;;;;;;;;;;;12.40;99.90;;;;;;10369705;28;84334;-52
2022/05/07 23:51:07;;;;;;;;;;;12.40;99.90;;;;;;10359338;28;93757;-54
2022/05/07 23:56:08;;;;;;;;;;;12.20;99.90;;;;;;10328889;28;84218;-54
